sensor_id;sensor_type;location;lat;lon;timestamp;P1;durP1;ratioP1;P2;durP2;ratioP2
68714;SDS011;55692;53.356;10.030;2023-11-18T00:00:25;14.05;;;7.38;;
68714;SDS011;55692;53.356;10.030;2023-11-18T00:02:51;9.65;;;6.57;;
68714;SDS011;55692;53.356;10.030;2023-11-18T00:05:17;10.40;;;6.85;;
68714;SDS011;55692;53.356;10.030;2023-11-18T00:07:43;10.82;;;6.82;;
68714;SDS011;55692;53.356;10.030;2023-11-18T00:10:09;12.48;;;7.03;;
68714;SDS011;55692;53.356;10.030;2023-11-18T00:12:35;10.73;;;6.50;;
68714;SDS011;55692;53.356;10.030;2023-11-18T00:15:04;15.77;;;7.00;;
68714;SDS011;55692;53.356;10.030;2023-11-18T00:17:30;11.32;;;7.00;;
68714;SDS011;55692;53.356;10.030;2023-11-18T00:19:57;13.20;;;7.35;;
68714;SDS011;55692;53.356;10.030;2023-11-18T00:22:23;12.82;;;7.95;;
68714;SDS011;55692;53.356;10.030;2023-11-18T00:24:49;12.48;;;7.50;;
68714;SDS011;55692;53.356;10.030;2023-11-18T00:27:15;13.02;;;7.30;;
68714;SDS011;55692;53.356;10.030;2023-11-18T00:29:41;13.93;;;6.72;;
68714;SDS011;55692;53.356;10.030;2023-11-18T00:32:08;11.10;;;6.95;;
68714;SDS011;55692;53.356;10.030;2023-11-18T00:34:34;13.93;;;6.72;;
68714;SDS011;55692;53.356;10.030;2023-11-18T00:37:00;12.45;;;7.25;;
68714;SDS011;55692;53.356;10.030;2023-11-18T00:39:27;11.32;;;7.22;;
68714;SDS011;55692;53.356;10.030;2023-11-18T00:41:53;12.68;;;7.03;;
68714;SDS011;55692;53.356;10.030;2023-11-18T00:44:20;13.10;;;7.18;;
68714;SDS011;55692;53.356;10.030;2023-11-18T00:46:46;13.00;;;6.88;;
68714;SDS011;55692;53.356;10.030;2023-11-18T00:49:12;15.93;;;7.47;;
68714;SDS011;55692;53.356;10.030;2023-11-18T00:51:38;13.63;;;6.97;;
68714;SDS011;55692;53.356;10.030;2023-11-18T00:54:06;12.60;;;6.80;;
68714;SDS011;55692;53.356;10.030;2023-11-18T00:56:32;10.38;;;6.47;;
68714;SDS011;55692;53.356;10.030;2023-11-18T00:58:58;10.13;;;6.50;;
68714;SDS011;55692;53.356;10.030;2023-11-18T01:01:24;10.00;;;6.68;;
68714;SDS011;55692;53.356;10.030;2023-11-18T01:03:50;11.20;;;6.68;;
68714;SDS011;55692;53.356;10.030;2023-11-18T01:06:16;9.60;;;6.20;;
68714;SDS011;55692;53.356;10.030;2023-11-18T01:08:45;10.95;;;6.57;;
68714;SDS011;55692;53.356;10.030;2023-11-18T01:11:15;11.07;;;7.18;;
68714;SDS011;55692;53.356;10.030;2023-11-18T01:13:44;10.73;;;6.75;;
68714;SDS011;55692;53.356;10.030;2023-11-18T01:16:10;11.30;;;6.60;;
68714;SDS011;55692;53.356;10.030;2023-11-18T01:18:36;14.48;;;6.47;;
68714;SDS011;55692;53.356;10.030;2023-11-18T01:21:02;11.68;;;7.20;;
68714;SDS011;55692;53.356;10.030;2023-11-18T01:23:28;11.30;;;5.78;;
68714;SDS011;55692;53.356;10.030;2023-11-18T01:25:54;10.77;;;6.63;;
68714;SDS011;55692;53.356;10.030;2023-11-18T01:28:21;10.52;;;6.45;;
68714;SDS011;55692;53.356;10.030;2023-11-18T01:30:47;10.98;;;6.82;;
68714;SDS011;55692;53.356;10.030;2023-11-18T01:33:13;12.43;;;7.10;;
68714;SDS011;55692;53.356;10.030;2023-11-18T01:35:39;11.23;;;6.85;;
68714;SDS011;55692;53.356;10.030;2023-11-18T01:38:06;14.65;;;7.38;;
68714;SDS011;55692;53.356;10.030;2023-11-18T01:40:33;10.48;;;6.05;;
68714;SDS011;55692;53.356;10.030;2023-11-18T01:42:59;11.48;;;7.00;;
68714;SDS011;55692;53.356;10.030;2023-11-18T01:45:24;12.88;;;6.30;;
68714;SDS011;55692;53.356;10.030;2023-11-18T01:47:51;10.98;;;6.65;;
68714;SDS011;55692;53.356;10.030;2023-11-18T01:50:18;11.63;;;6.50;;
68714;SDS011;55692;53.356;10.030;2023-11-18T01:52:45;10.93;;;7.00;;
68714;SDS011;55692;53.356;10.030;2023-11-18T01:55:12;11.73;;;6.78;;
68714;SDS011;55692;53.356;10.030;2023-11-18T01:57:39;12.77;;;6.55;;
68714;SDS011;55692;53.356;10.030;2023-11-18T02:00:08;10.43;;;6.35;;
68714;SDS011;55692;53.356;10.030;2023-11-18T02:02:36;11.55;;;6.47;;
68714;SDS011;55692;53.356;10.030;2023-11-18T02:05:02;13.00;;;6.40;;
68714;SDS011;55692;53.356;10.030;2023-11-18T02:07:31;9.70;;;6.18;;
68714;SDS011;55692;53.356;10.030;2023-11-18T02:09:58;12.65;;;6.30;;
68714;SDS011;55692;53.356;10.030;2023-11-18T02:12:31;10.57;;;6.60;;
68714;SDS011;55692;53.356;10.030;2023-11-18T02:15:00;12.13;;;6.78;;
68714;SDS011;55692;53.356;10.030;2023-11-18T02:17:26;9.60;;;6.55;;
68714;SDS011;55692;53.356;10.030;2023-11-18T02:19:53;11.32;;;6.97;;
68714;SDS011;55692;53.356;10.030;2023-11-18T02:22:21;11.82;;;6.45;;
68714;SDS011;55692;53.356;10.030;2023-11-18T02:24:47;12.15;;;6.43;;
68714;SDS011;55692;53.356;10.030;2023-11-18T02:27:14;10.13;;;6.20;;
68714;SDS011;55692;53.356;10.030;2023-11-18T02:29:41;11.30;;;6.93;;
68714;SDS011;55692;53.356;10.030;2023-11-18T02:32:15;9.73;;;5.88;;
68714;SDS011;55692;53.356;10.030;2023-11-18T02:34:49;10.00;;;6.45;;
68714;SDS011;55692;53.356;10.030;2023-11-18T02:37:18;10.68;;;6.75;;
68714;SDS011;55692;53.356;10.030;2023-11-18T02:39:45;13.73;;;6.88;;
68714;SDS011;55692;53.356;10.030;2023-11-18T02:42:14;9.82;;;6.60;;
68714;SDS011;55692;53.356;10.030;2023-11-18T02:44:40;10.73;;;6.57;;
68714;SDS011;55692;53.356;10.030;2023-11-18T02:47:07;10.48;;;6.18;;
68714;SDS011;55692;53.356;10.030;2023-11-18T02:49:35;10.82;;;6.70;;
68714;SDS011;55692;53.356;10.030;2023-11-18T02:52:01;11.20;;;7.07;;
68714;SDS011;55692;53.356;10.030;2023-11-18T02:54:27;10.82;;;6.72;;
68714;SDS011;55692;53.356;10.030;2023-11-18T02:56:53;12.15;;;6.95;;
68714;SDS011;55692;53.356;10.030;2023-11-18T02:59:20;9.40;;;5.95;;
68714;SDS011;55692;53.356;10.030;2023-11-18T03:01:46;9.93;;;6.00;;
68714;SDS011;55692;53.356;10.030;2023-11-18T03:04:12;13.50;;;6.68;;
68714;SDS011;55692;53.356;10.030;2023-11-18T03:06:39;12.15;;;6.78;;
68714;SDS011;55692;53.356;10.030;2023-11-18T03:09:06;11.32;;;6.45;;
68714;SDS011;55692;53.356;10.030;2023-11-18T03:11:35;10.20;;;6.93;;
68714;SDS011;55692;53.356;10.030;2023-11-18T03:14:01;12.95;;;6.97;;
68714;SDS011;55692;53.356;10.030;2023-11-18T03:16:29;11.73;;;6.65;;
68714;SDS011;55692;53.356;10.030;2023-11-18T03:18:55;10.32;;;5.75;;
68714;SDS011;55692;53.356;10.030;2023-11-18T03:21:22;13.38;;;6.90;;
68714;SDS011;55692;53.356;10.030;2023-11-18T03:23:48;13.13;;;6.72;;
68714;SDS011;55692;53.356;10.030;2023-11-18T03:26:14;11.02;;;7.10;;
68714;SDS011;55692;53.356;10.030;2023-11-18T03:28:40;10.85;;;6.70;;
68714;SDS011;55692;53.356;10.030;2023-11-18T03:31:06;11.32;;;6.60;;
68714;SDS011;55692;53.356;10.030;2023-11-18T03:33:34;12.82;;;6.30;;
68714;SDS011;55692;53.356;10.030;2023-11-18T03:36:00;10.80;;;6.93;;
68714;SDS011;55692;53.356;10.030;2023-11-18T03:38:26;11.23;;;6.93;;
68714;SDS011;55692;53.356;10.030;2023-11-18T03:40:53;12.07;;;7.00;;
68714;SDS011;55692;53.356;10.030;2023-11-18T03:43:20;12.50;;;6.57;;
68714;SDS011;55692;53.356;10.030;2023-11-18T03:45:47;12.45;;;6.63;;
68714;SDS011;55692;53.356;10.030;2023-11-18T03:48:13;10.63;;;6.63;;
68714;SDS011;55692;53.356;10.030;2023-11-18T03:50:39;11.90;;;6.60;;
68714;SDS011;55692;53.356;10.030;2023-11-18T03:53:05;10.27;;;5.95;;
68714;SDS011;55692;53.356;10.030;2023-11-18T03:55:32;12.68;;;6.55;;
68714;SDS011;55692;53.356;10.030;2023-11-18T03:57:58;13.15;;;6.82;;
68714;SDS011;55692;53.356;10.030;2023-11-18T04:00:24;12.35;;;6.57;;
68714;SDS011;55692;53.356;10.030;2023-11-18T04:02:57;12.65;;;6.82;;
68714;SDS011;55692;53.356;10.030;2023-11-18T04:05:23;11.82;;;6.53;;
68714;SDS011;55692;53.356;10.030;2023-11-18T04:07:49;13.27;;;6.57;;
68714;SDS011;55692;53.356;10.030;2023-11-18T04:10:15;11.98;;;7.07;;
68714;SDS011;55692;53.356;10.030;2023-11-18T04:12:43;13.93;;;7.68;;
68714;SDS011;55692;53.356;10.030;2023-11-18T04:15:11;12.15;;;7.25;;
68714;SDS011;55692;53.356;10.030;2023-11-18T04:17:38;16.00;;;7.45;;
68714;SDS011;55692;53.356;10.030;2023-11-18T04:20:05;17.50;;;7.15;;
68714;SDS011;55692;53.356;10.030;2023-11-18T04:22:39;13.35;;;7.00;;
68714;SDS011;55692;53.356;10.030;2023-11-18T04:25:06;13.45;;;6.95;;
68714;SDS011;55692;53.356;10.030;2023-11-18T04:27:32;12.63;;;7.15;;
68714;SDS011;55692;53.356;10.030;2023-11-18T04:29:58;12.73;;;7.57;;
68714;SDS011;55692;53.356;10.030;2023-11-18T04:32:24;11.77;;;7.13;;
68714;SDS011;55692;53.356;10.030;2023-11-18T04:34:50;15.82;;;8.00;;
68714;SDS011;55692;53.356;10.030;2023-11-18T04:37:16;11.77;;;7.30;;
68714;SDS011;55692;53.356;10.030;2023-11-18T04:39:43;12.95;;;7.65;;
68714;SDS011;55692;53.356;10.030;2023-11-18T04:42:09;15.88;;;7.70;;
68714;SDS011;55692;53.356;10.030;2023-11-18T04:44:34;14.27;;;7.55;;
68714;SDS011;55692;53.356;10.030;2023-11-18T04:47:00;13.50;;;7.35;;
68714;SDS011;55692;53.356;10.030;2023-11-18T04:49:27;14.77;;;7.45;;
68714;SDS011;55692;53.356;10.030;2023-11-18T04:51:53;12.23;;;7.20;;
68714;SDS011;55692;53.356;10.030;2023-11-18T04:54:19;13.02;;;7.57;;
68714;SDS011;55692;53.356;10.030;2023-11-18T04:56:45;14.60;;;7.72;;
68714;SDS011;55692;53.356;10.030;2023-11-18T04:59:11;15.20;;;7.63;;
68714;SDS011;55692;53.356;10.030;2023-11-18T05:01:37;13.52;;;8.00;;
68714;SDS011;55692;53.356;10.030;2023-11-18T05:04:03;18.58;;;8.65;;
68714;SDS011;55692;53.356;10.030;2023-11-18T05:06:29;17.20;;;9.27;;
68714;SDS011;55692;53.356;10.030;2023-11-18T05:08:55;16.00;;;8.25;;
68714;SDS011;55692;53.356;10.030;2023-11-18T05:11:21;18.48;;;9.23;;
68714;SDS011;55692;53.356;10.030;2023-11-18T05:13:47;19.73;;;9.77;;
68714;SDS011;55692;53.356;10.030;2023-11-18T05:16:14;16.05;;;8.27;;
68714;SDS011;55692;53.356;10.030;2023-11-18T05:18:40;16.83;;;8.95;;
68714;SDS011;55692;53.356;10.030;2023-11-18T05:21:06;18.42;;;9.52;;
68714;SDS011;55692;53.356;10.030;2023-11-18T05:23:35;16.77;;;9.55;;
68714;SDS011;55692;53.356;10.030;2023-11-18T05:26:01;16.48;;;8.90;;
68714;SDS011;55692;53.356;10.030;2023-11-18T05:28:30;15.63;;;8.30;;
68714;SDS011;55692;53.356;10.030;2023-11-18T05:30:56;13.80;;;7.70;;
68714;SDS011;55692;53.356;10.030;2023-11-18T05:33:27;19.30;;;9.13;;
68714;SDS011;55692;53.356;10.030;2023-11-18T05:35:53;16.85;;;8.90;;
68714;SDS011;55692;53.356;10.030;2023-11-18T05:38:19;17.63;;;9.32;;
68714;SDS011;55692;53.356;10.030;2023-11-18T05:40:52;21.42;;;9.75;;
68714;SDS011;55692;53.356;10.030;2023-11-18T05:43:22;21.60;;;9.18;;
68714;SDS011;55692;53.356;10.030;2023-11-18T05:45:50;21.83;;;10.20;;
68714;SDS011;55692;53.356;10.030;2023-11-18T05:48:35;18.30;;;9.00;;
68714;SDS011;55692;53.356;10.030;2023-11-18T05:51:01;21.40;;;10.48;;
68714;SDS011;55692;53.356;10.030;2023-11-18T05:53:27;19.42;;;9.45;;
68714;SDS011;55692;53.356;10.030;2023-11-18T05:55:54;23.23;;;11.00;;
68714;SDS011;55692;53.356;10.030;2023-11-18T05:58:20;22.48;;;9.63;;
68714;SDS011;55692;53.356;10.030;2023-11-18T06:00:46;22.02;;;10.10;;
68714;SDS011;55692;53.356;10.030;2023-11-18T06:03:12;20.20;;;9.95;;
68714;SDS011;55692;53.356;10.030;2023-11-18T06:05:39;20.20;;;10.45;;
68714;SDS011;55692;53.356;10.030;2023-11-18T06:08:05;18.73;;;9.40;;
68714;SDS011;55692;53.356;10.030;2023-11-18T06:10:32;18.17;;;8.95;;
68714;SDS011;55692;53.356;10.030;2023-11-18T06:12:59;19.48;;;9.25;;
68714;SDS011;55692;53.356;10.030;2023-11-18T06:15:25;21.83;;;9.88;;
68714;SDS011;55692;53.356;10.030;2023-11-18T06:17:52;30.13;;;11.77;;
68714;SDS011;55692;53.356;10.030;2023-11-18T06:20:20;21.30;;;9.57;;
68714;SDS011;55692;53.356;10.030;2023-11-18T06:22:48;19.15;;;9.52;;
68714;SDS011;55692;53.356;10.030;2023-11-18T06:25:14;17.25;;;8.90;;
68714;SDS011;55692;53.356;10.030;2023-11-18T06:27:42;21.42;;;9.48;;
68714;SDS011;55692;53.356;10.030;2023-11-18T06:30:10;21.90;;;9.52;;
68714;SDS011;55692;53.356;10.030;2023-11-18T06:32:37;22.50;;;9.57;;
68714;SDS011;55692;53.356;10.030;2023-11-18T06:35:04;18.60;;;9.13;;
68714;SDS011;55692;53.356;10.030;2023-11-18T06:37:33;21.00;;;9.23;;
68714;SDS011;55692;53.356;10.030;2023-11-18T06:39:59;18.17;;;8.90;;
68714;SDS011;55692;53.356;10.030;2023-11-18T06:42:26;18.13;;;9.40;;
68714;SDS011;55692;53.356;10.030;2023-11-18T06:44:51;18.60;;;8.82;;
68714;SDS011;55692;53.356;10.030;2023-11-18T06:47:17;18.98;;;9.43;;
68714;SDS011;55692;53.356;10.030;2023-11-18T06:49:44;20.23;;;9.95;;
68714;SDS011;55692;53.356;10.030;2023-11-18T06:52:12;15.48;;;8.57;;
68714;SDS011;55692;53.356;10.030;2023-11-18T06:54:41;20.95;;;8.98;;
68714;SDS011;55692;53.356;10.030;2023-11-18T06:57:07;16.90;;;9.15;;
68714;SDS011;55692;53.356;10.030;2023-11-18T06:59:33;20.27;;;9.50;;
68714;SDS011;55692;53.356;10.030;2023-11-18T07:01:59;20.23;;;9.70;;
68714;SDS011;55692;53.356;10.030;2023-11-18T07:04:25;18.45;;;9.50;;
68714;SDS011;55692;53.356;10.030;2023-11-18T07:06:51;23.58;;;10.48;;
68714;SDS011;55692;53.356;10.030;2023-11-18T07:09:17;20.65;;;9.57;;
68714;SDS011;55692;53.356;10.030;2023-11-18T07:11:46;16.75;;;8.65;;
68714;SDS011;55692;53.356;10.030;2023-11-18T07:14:12;20.55;;;9.98;;
68714;SDS011;55692;53.356;10.030;2023-11-18T07:16:39;27.15;;;10.05;;
68714;SDS011;55692;53.356;10.030;2023-11-18T07:19:06;22.60;;;10.57;;
68714;SDS011;55692;53.356;10.030;2023-11-18T07:21:33;22.75;;;8.95;;
68714;SDS011;55692;53.356;10.030;2023-11-18T07:23:59;24.90;;;9.50;;
68714;SDS011;55692;53.356;10.030;2023-11-18T07:26:25;27.17;;;10.80;;
68714;SDS011;55692;53.356;10.030;2023-11-18T07:28:51;21.23;;;9.60;;
68714;SDS011;55692;53.356;10.030;2023-11-18T07:31:17;19.63;;;9.52;;
68714;SDS011;55692;53.356;10.030;2023-11-18T07:33:44;20.25;;;8.88;;
68714;SDS011;55692;53.356;10.030;2023-11-18T07:36:14;22.35;;;10.27;;
68714;SDS011;55692;53.356;10.030;2023-11-18T07:38:40;22.98;;;10.98;;
68714;SDS011;55692;53.356;10.030;2023-11-18T07:41:07;27.17;;;11.95;;
68714;SDS011;55692;53.356;10.030;2023-11-18T07:43:48;21.75;;;10.77;;
68714;SDS011;55692;53.356;10.030;2023-11-18T07:46:14;25.25;;;10.88;;
68714;SDS011;55692;53.356;10.030;2023-11-18T07:48:40;23.75;;;10.55;;
68714;SDS011;55692;53.356;10.030;2023-11-18T07:51:06;23.45;;;10.80;;
68714;SDS011;55692;53.356;10.030;2023-11-18T07:53:33;23.27;;;10.00;;
68714;SDS011;55692;53.356;10.030;2023-11-18T07:56:01;20.58;;;10.10;;
68714;SDS011;55692;53.356;10.030;2023-11-18T07:58:27;25.75;;;11.85;;
68714;SDS011;55692;53.356;10.030;2023-11-18T08:00:53;25.92;;;10.95;;
68714;SDS011;55692;53.356;10.030;2023-11-18T08:03:19;21.58;;;10.88;;
68714;SDS011;55692;53.356;10.030;2023-11-18T08:05:46;25.20;;;11.50;;
68714;SDS011;55692;53.356;10.030;2023-11-18T08:08:14;25.30;;;10.88;;
68714;SDS011;55692;53.356;10.030;2023-11-18T08:10:43;25.10;;;11.32;;
68714;SDS011;55692;53.356;10.030;2023-11-18T08:13:10;24.33;;;10.60;;
68714;SDS011;55692;53.356;10.030;2023-11-18T08:15:39;20.52;;;10.48;;
68714;SDS011;55692;53.356;10.030;2023-11-18T08:18:05;29.38;;;12.45;;
68714;SDS011;55692;53.356;10.030;2023-11-18T08:20:32;26.52;;;12.25;;
68714;SDS011;55692;53.356;10.030;2023-11-18T08:22:58;27.67;;;12.18;;
68714;SDS011;55692;53.356;10.030;2023-11-18T08:25:24;22.98;;;10.55;;
68714;SDS011;55692;53.356;10.030;2023-11-18T08:27:51;22.77;;;10.75;;
68714;SDS011;55692;53.356;10.030;2023-11-18T08:30:17;23.88;;;11.23;;
68714;SDS011;55692;53.356;10.030;2023-11-18T08:32:44;21.83;;;10.10;;
68714;SDS011;55692;53.356;10.030;2023-11-18T08:35:13;21.58;;;12.10;;
68714;SDS011;55692;53.356;10.030;2023-11-18T08:37:40;21.50;;;10.65;;
68714;SDS011;55692;53.356;10.030;2023-11-18T08:40:13;25.95;;;11.23;;
68714;SDS011;55692;53.356;10.030;2023-11-18T08:42:46;21.20;;;10.15;;
68714;SDS011;55692;53.356;10.030;2023-11-18T08:45:15;17.73;;;8.05;;
68714;SDS011;55692;53.356;10.030;2023-11-18T08:47:47;16.13;;;8.25;;
68714;SDS011;55692;53.356;10.030;2023-11-18T08:50:14;16.77;;;8.10;;
68714;SDS011;55692;53.356;10.030;2023-11-18T08:52:41;19.65;;;8.27;;
68714;SDS011;55692;53.356;10.030;2023-11-18T08:55:09;17.05;;;7.97;;
68714;SDS011;55692;53.356;10.030;2023-11-18T08:57:58;16.23;;;8.45;;
68714;SDS011;55692;53.356;10.030;2023-11-18T09:00:25;21.17;;;9.25;;
68714;SDS011;55692;53.356;10.030;2023-11-18T09:03:09;17.95;;;8.77;;
68714;SDS011;55692;53.356;10.030;2023-11-18T09:05:43;19.42;;;9.75;;
68714;SDS011;55692;53.356;10.030;2023-11-18T09:08:21;17.30;;;9.18;;
68714;SDS011;55692;53.356;10.030;2023-11-18T09:10:47;16.73;;;8.32;;
68714;SDS011;55692;53.356;10.030;2023-11-18T09:13:13;16.70;;;8.73;;
68714;SDS011;55692;53.356;10.030;2023-11-18T09:15:39;18.42;;;9.07;;
68714;SDS011;55692;53.356;10.030;2023-11-18T09:18:05;15.88;;;8.15;;
68714;SDS011;55692;53.356;10.030;2023-11-18T09:20:35;16.70;;;9.30;;
68714;SDS011;55692;53.356;10.030;2023-11-18T09:23:01;17.88;;;8.82;;
68714;SDS011;55692;53.356;10.030;2023-11-18T09:25:27;18.63;;;7.95;;
68714;SDS011;55692;53.356;10.030;2023-11-18T09:27:53;14.55;;;7.78;;
68714;SDS011;55692;53.356;10.030;2023-11-18T09:30:19;12.20;;;6.97;;
68714;SDS011;55692;53.356;10.030;2023-11-18T09:32:45;10.68;;;6.00;;
68714;SDS011;55692;53.356;10.030;2023-11-18T09:35:13;14.15;;;6.25;;
68714;SDS011;55692;53.356;10.030;2023-11-18T09:37:39;15.23;;;7.60;;
68714;SDS011;55692;53.356;10.030;2023-11-18T09:40:08;14.00;;;7.43;;
68714;SDS011;55692;53.356;10.030;2023-11-18T09:42:38;11.73;;;6.97;;
68714;SDS011;55692;53.356;10.030;2023-11-18T09:45:05;10.38;;;6.00;;
68714;SDS011;55692;53.356;10.030;2023-11-18T09:47:42;15.50;;;6.10;;
68714;SDS011;55692;53.356;10.030;2023-11-18T09:50:12;12.45;;;6.68;;
68714;SDS011;55692;53.356;10.030;2023-11-18T09:52:46;13.98;;;5.82;;
68714;SDS011;55692;53.356;10.030;2023-11-18T09:55:21;8.25;;;5.07;;
68714;SDS011;55692;53.356;10.030;2023-11-18T09:57:52;11.45;;;5.30;;
68714;SDS011;55692;53.356;10.030;2023-11-18T10:00:22;8.73;;;4.97;;
68714;SDS011;55692;53.356;10.030;2023-11-18T10:02:51;12.48;;;5.20;;
68714;SDS011;55692;53.356;10.030;2023-11-18T10:05:19;6.97;;;4.45;;
68714;SDS011;55692;53.356;10.030;2023-11-18T10:07:49;8.57;;;4.80;;
68714;SDS011;55692;53.356;10.030;2023-11-18T10:10:16;8.73;;;4.72;;
68714;SDS011;55692;53.356;10.030;2023-11-18T10:12:42;11.25;;;5.07;;
68714;SDS011;55692;53.356;10.030;2023-11-18T10:15:17;8.07;;;3.90;;
68714;SDS011;55692;53.356;10.030;2023-11-18T10:17:43;6.30;;;4.05;;
68714;SDS011;55692;53.356;10.030;2023-11-18T10:20:47;7.10;;;3.92;;
68714;SDS011;55692;53.356;10.030;2023-11-18T10:23:16;6.35;;;4.00;;
68714;SDS011;55692;53.356;10.030;2023-11-18T10:25:46;8.75;;;4.03;;
68714;SDS011;55692;53.356;10.030;2023-11-18T10:28:25;5.43;;;3.42;;
68714;SDS011;55692;53.356;10.030;2023-11-18T10:30:57;5.35;;;3.30;;
68714;SDS011;55692;53.356;10.030;2023-11-18T10:33:26;5.32;;;3.53;;
68714;SDS011;55692;53.356;10.030;2023-11-18T10:35:56;6.00;;;3.70;;
68714;SDS011;55692;53.356;10.030;2023-11-18T10:38:22;6.72;;;3.55;;
68714;SDS011;55692;53.356;10.030;2023-11-18T10:40:55;3.97;;;2.97;;
68714;SDS011;55692;53.356;10.030;2023-11-18T10:43:21;4.57;;;3.10;;
68714;SDS011;55692;53.356;10.030;2023-11-18T10:46:12;4.38;;;2.85;;
68714;SDS011;55692;53.356;10.030;2023-11-18T10:48:38;4.20;;;2.90;;
68714;SDS011;55692;53.356;10.030;2023-11-18T10:51:06;4.72;;;3.15;;
68714;SDS011;55692;53.356;10.030;2023-11-18T10:53:32;4.43;;;3.10;;
68714;SDS011;55692;53.356;10.030;2023-11-18T10:55:58;4.72;;;3.05;;
68714;SDS011;55692;53.356;10.030;2023-11-18T10:58:24;4.50;;;2.85;;
68714;SDS011;55692;53.356;10.030;2023-11-18T11:00:51;4.80;;;3.00;;
68714;SDS011;55692;53.356;10.030;2023-11-18T11:03:20;5.60;;;3.03;;
68714;SDS011;55692;53.356;10.030;2023-11-18T11:05:48;5.60;;;3.28;;
68714;SDS011;55692;53.356;10.030;2023-11-18T11:08:14;5.25;;;3.22;;
68714;SDS011;55692;53.356;10.030;2023-11-18T11:10:43;4.07;;;2.60;;
68714;SDS011;55692;53.356;10.030;2023-11-18T11:13:09;4.75;;;2.40;;
68714;SDS011;55692;53.356;10.030;2023-11-18T11:15:42;4.40;;;3.08;;
68714;SDS011;55692;53.356;10.030;2023-11-18T11:18:14;4.20;;;2.90;;
68714;SDS011;55692;53.356;10.030;2023-11-18T11:21:15;6.32;;;2.78;;
68714;SDS011;55692;53.356;10.030;2023-11-18T11:26:23;5.00;;;3.10;;
68714;SDS011;55692;53.356;10.030;2023-11-18T11:29:57;7.00;;;2.90;;
68714;SDS011;55692;53.356;10.030;2023-11-18T11:32:14;3.95;;;2.70;;
68714;SDS011;55692;53.356;10.030;2023-11-18T11:34:39;4.53;;;2.67;;
68714;SDS011;55692;53.356;10.030;2023-11-18T11:37:07;4.97;;;3.30;;
68714;SDS011;55692;53.356;10.030;2023-11-18T11:39:34;5.45;;;3.17;;
68714;SDS011;55692;53.356;10.030;2023-11-18T11:42:01;6.80;;;3.58;;
68714;SDS011;55692;53.356;10.030;2023-11-18T11:44:27;5.22;;;2.70;;
68714;SDS011;55692;53.356;10.030;2023-11-18T11:46:54;4.57;;;2.65;;
68714;SDS011;55692;53.356;10.030;2023-11-18T11:49:21;4.25;;;2.58;;
68714;SDS011;55692;53.356;10.030;2023-11-18T11:52:12;4.38;;;2.90;;
68714;SDS011;55692;53.356;10.030;2023-11-18T11:54:42;3.92;;;2.42;;
68714;SDS011;55692;53.356;10.030;2023-11-18T11:57:10;4.65;;;2.22;;
68714;SDS011;55692;53.356;10.030;2023-11-18T12:02:17;3.50;;;2.33;;
68714;SDS011;55692;53.356;10.030;2023-11-18T12:04:49;4.00;;;2.40;;
68714;SDS011;55692;53.356;10.030;2023-11-18T12:07:22;3.38;;;2.33;;
68714;SDS011;55692;53.356;10.030;2023-11-18T12:09:49;4.45;;;2.22;;
68714;SDS011;55692;53.356;10.030;2023-11-18T12:12:19;3.17;;;1.95;;
68714;SDS011;55692;53.356;10.030;2023-11-18T12:14:55;4.00;;;2.50;;
68714;SDS011;55692;53.356;10.030;2023-11-18T12:17:22;4.55;;;2.60;;
68714;SDS011;55692;53.356;10.030;2023-11-18T12:19:53;3.83;;;2.33;;
68714;SDS011;55692;53.356;10.030;2023-11-18T12:22:32;3.38;;;2.50;;
68714;SDS011;55692;53.356;10.030;2023-11-18T12:27:45;2.75;;;2.15;;
68714;SDS011;55692;53.356;10.030;2023-11-18T12:32:57;4.97;;;2.80;;
68714;SDS011;55692;53.356;10.030;2023-11-18T12:35:26;4.63;;;2.83;;
68714;SDS011;55692;53.356;10.030;2023-11-18T12:40:49;4.38;;;2.63;;
68714;SDS011;55692;53.356;10.030;2023-11-18T12:43:17;4.82;;;2.78;;
68714;SDS011;55692;53.356;10.030;2023-11-18T12:48:20;4.93;;;3.15;;
68714;SDS011;55692;53.356;10.030;2023-11-18T12:50:52;5.78;;;3.30;;
68714;SDS011;55692;53.356;10.030;2023-11-18T12:53:20;4.63;;;3.10;;
68714;SDS011;55692;53.356;10.030;2023-11-18T12:55:49;7.55;;;3.15;;
68714;SDS011;55692;53.356;10.030;2023-11-18T12:58:15;9.05;;;3.78;;
68714;SDS011;55692;53.356;10.030;2023-11-18T13:00:43;6.00;;;3.33;;
68714;SDS011;55692;53.356;10.030;2023-11-18T13:03:10;5.18;;;3.30;;
68714;SDS011;55692;53.356;10.030;2023-11-18T13:05:36;6.15;;;3.50;;
68714;SDS011;55692;53.356;10.030;2023-11-18T13:08:03;6.88;;;3.70;;
68714;SDS011;55692;53.356;10.030;2023-11-18T13:10:29;5.45;;;3.20;;
68714;SDS011;55692;53.356;10.030;2023-11-18T13:12:56;5.75;;;3.10;;
68714;SDS011;55692;53.356;10.030;2023-11-18T13:15:23;5.03;;;3.42;;
68714;SDS011;55692;53.356;10.030;2023-11-18T13:18:03;6.55;;;3.65;;
68714;SDS011;55692;53.356;10.030;2023-11-18T13:20:32;5.30;;;3.13;;
68714;SDS011;55692;53.356;10.030;2023-11-18T13:23:02;5.35;;;3.63;;
68714;SDS011;55692;53.356;10.030;2023-11-18T13:25:36;5.75;;;3.63;;
68714;SDS011;55692;53.356;10.030;2023-11-18T13:28:09;9.57;;;3.55;;
68714;SDS011;55692;53.356;10.030;2023-11-18T13:30:35;5.85;;;3.63;;
68714;SDS011;55692;53.356;10.030;2023-11-18T13:33:02;6.40;;;3.22;;
68714;SDS011;55692;53.356;10.030;2023-11-18T13:35:28;8.70;;;3.88;;
68714;SDS011;55692;53.356;10.030;2023-11-18T13:37:54;5.85;;;3.53;;
68714;SDS011;55692;53.356;10.030;2023-11-18T13:40:21;7.55;;;3.65;;
68714;SDS011;55692;53.356;10.030;2023-11-18T13:42:53;6.95;;;3.92;;
68714;SDS011;55692;53.356;10.030;2023-11-18T13:45:26;6.47;;;3.70;;
68714;SDS011;55692;53.356;10.030;2023-11-18T13:47:55;5.68;;;3.65;;
68714;SDS011;55692;53.356;10.030;2023-11-18T13:50:22;9.45;;;3.60;;
68714;SDS011;55692;53.356;10.030;2023-11-18T13:52:50;8.52;;;4.10;;
68714;SDS011;55692;53.356;10.030;2023-11-18T13:55:16;6.65;;;3.80;;
68714;SDS011;55692;53.356;10.030;2023-11-18T13:57:45;5.82;;;3.45;;
68714;SDS011;55692;53.356;10.030;2023-11-18T14:00:11;6.07;;;3.47;;
68714;SDS011;55692;53.356;10.030;2023-11-18T14:02:41;6.97;;;3.47;;
68714;SDS011;55692;53.356;10.030;2023-11-18T14:05:16;6.65;;;3.67;;
68714;SDS011;55692;53.356;10.030;2023-11-18T14:07:42;10.68;;;3.80;;
68714;SDS011;55692;53.356;10.030;2023-11-18T14:10:08;8.07;;;3.78;;
68714;SDS011;55692;53.356;10.030;2023-11-18T14:12:38;8.07;;;3.78;;
68714;SDS011;55692;53.356;10.030;2023-11-18T14:15:04;7.18;;;3.45;;
68714;SDS011;55692;53.356;10.030;2023-11-18T14:17:34;6.63;;;3.80;;
68714;SDS011;55692;53.356;10.030;2023-11-18T14:20:01;7.78;;;3.38;;
68714;SDS011;55692;53.356;10.030;2023-11-18T14:22:27;7.15;;;3.97;;
68714;SDS011;55692;53.356;10.030;2023-11-18T14:24:53;8.50;;;4.38;;
68714;SDS011;55692;53.356;10.030;2023-11-18T14:27:19;10.05;;;4.93;;
68714;SDS011;55692;53.356;10.030;2023-11-18T14:29:45;11.30;;;5.07;;
68714;SDS011;55692;53.356;10.030;2023-11-18T14:32:11;10.48;;;5.07;;
68714;SDS011;55692;53.356;10.030;2023-11-18T14:34:39;13.95;;;5.68;;
68714;SDS011;55692;53.356;10.030;2023-11-18T14:37:07;11.77;;;6.40;;
68714;SDS011;55692;53.356;10.030;2023-11-18T14:39:33;12.57;;;6.60;;
68714;SDS011;55692;53.356;10.030;2023-11-18T14:42:01;11.52;;;6.57;;
68714;SDS011;55692;53.356;10.030;2023-11-18T14:44:27;15.10;;;6.82;;